sensor_id;sensor_type;location;lat;lon;timestamp;P1;durP1;ratioP1;P2;durP2;ratioP2
466;SDS011;72290;48.808;9.222;2024-01-25T06:01:02;22.10;;;5.37;;
466;SDS011;72290;48.808;9.222;2024-01-25T06:03:29;20.83;;;6.30;;
466;SDS011;72290;48.808;9.222;2024-01-25T06:05:55;22.50;;;5.10;;
466;SDS011;72290;48.808;9.222;2024-01-25T06:08:21;21.00;;;5.50;;
466;SDS011;72290;48.808;9.222;2024-01-25T06:10:47;23.20;;;4.80;;
466;SDS011;72290;48.808;9.222;2024-01-25T06:13:13;26.93;;;5.40;;
466;SDS011;72290;48.808;9.222;2024-01-25T06:15:39;15.73;;;3.90;;
466;SDS011;72290;48.808;9.222;2024-01-25T06:18:05;23.53;;;6.43;;
466;SDS011;72290;48.808;9.222;2024-01-25T06:20:32;19.70;;;5.50;;
466;SDS011;72290;48.808;9.222;2024-01-25T06:22:58;18.73;;;5.53;;
466;SDS011;72290;48.808;9.222;2024-01-25T06:25:24;27.43;;;6.50;;
466;SDS011;72290;48.808;9.222;2024-01-25T06:27:51;28.10;;;5.57;;
466;SDS011;72290;48.808;9.222;2024-01-25T06:30:17;17.63;;;4.70;;
466;SDS011;72290;48.808;9.222;2024-01-25T06:32:44;29.20;;;5.40;;
466;SDS011;72290;48.808;9.222;2024-01-25T06:35:11;18.60;;;4.57;;
466;SDS011;72290;48.808;9.222;2024-01-25T06:37:36;26.37;;;5.87;;
466;SDS011;72290;48.808;9.222;2024-01-25T06:40:03;24.47;;;5.47;;
466;SDS011;72290;48.808;9.222;2024-01-25T06:42:29;28.17;;;6.43;;
466;SDS011;72290;48.808;9.222;2024-01-25T06:44:55;25.87;;;5.80;;
466;SDS011;72290;48.808;9.222;2024-01-25T06:47:21;22.03;;;6.13;;
466;SDS011;72290;48.808;9.222;2024-01-25T06:49:47;26.60;;;5.37;;
466;SDS011;72290;48.808;9.222;2024-01-25T06:52:16;31.80;;;5.90;;
466;SDS011;72290;48.808;9.222;2024-01-25T06:54:42;34.83;;;5.40;;
466;SDS011;72290;48.808;9.222;2024-01-25T06:57:08;29.40;;;4.80;;
466;SDS011;72290;48.808;9.222;2024-01-25T06:59:34;35.40;;;6.50;;
466;SDS011;72290;48.808;9.222;2024-01-25T07:02:00;25.90;;;5.40;;
466;SDS011;72290;48.808;9.222;2024-01-25T07:04:27;38.20;;;6.90;;
466;SDS011;72290;48.808;9.222;2024-01-25T07:06:54;27.70;;;5.77;;
466;SDS011;72290;48.808;9.222;2024-01-25T07:09:20;17.20;;;5.93;;
466;SDS011;72290;48.808;9.222;2024-01-25T07:11:46;30.80;;;6.20;;
466;SDS011;72290;48.808;9.222;2024-01-25T07:14:12;27.50;;;5.73;;
466;SDS011;72290;48.808;9.222;2024-01-25T07:16:38;36.27;;;6.13;;
466;SDS011;72290;48.808;9.222;2024-01-25T07:19:04;28.60;;;6.77;;
466;SDS011;72290;48.808;9.222;2024-01-25T07:21:30;25.53;;;5.40;;
466;SDS011;72290;48.808;9.222;2024-01-25T07:23:58;19.50;;;5.50;;
466;SDS011;72290;48.808;9.222;2024-01-25T07:26:24;22.97;;;5.63;;
466;SDS011;72290;48.808;9.222;2024-01-25T07:28:50;18.80;;;5.20;;
466;SDS011;72290;48.808;9.222;2024-01-25T07:31:21;25.57;;;5.30;;
466;SDS011;72290;48.808;9.222;2024-01-25T07:33:47;41.67;;;6.30;;
466;SDS011;72290;48.808;9.222;2024-01-25T07:36:13;17.80;;;5.47;;
466;SDS011;72290;48.808;9.222;2024-01-25T07:38:39;25.03;;;5.87;;
466;SDS011;72290;48.808;9.222;2024-01-25T07:41:05;39.63;;;5.10;;
466;SDS011;72290;48.808;9.222;2024-01-25T07:43:32;26.77;;;5.57;;
466;SDS011;72290;48.808;9.222;2024-01-25T07:45:58;23.23;;;6.27;;
466;SDS011;72290;48.808;9.222;2024-01-25T07:48:24;32.63;;;5.57;;
466;SDS011;72290;48.808;9.222;2024-01-25T07:50:50;26.43;;;5.93;;
466;SDS011;72290;48.808;9.222;2024-01-25T07:53:16;20.37;;;5.33;;
466;SDS011;72290;48.808;9.222;2024-01-25T07:55:42;28.37;;;5.80;;
466;SDS011;72290;48.808;9.222;2024-01-25T07:58:08;27.87;;;5.57;;
466;SDS011;72290;48.808;9.222;2024-01-25T08:00:34;22.73;;;5.80;;
466;SDS011;72290;48.808;9.222;2024-01-25T08:03:00;18.57;;;6.73;;
466;SDS011;72290;48.808;9.222;2024-01-25T08:05:26;26.27;;;5.33;;
466;SDS011;72290;48.808;9.222;2024-01-25T08:07:52;26.67;;;5.73;;
466;SDS011;72290;48.808;9.222;2024-01-25T08:10:18;22.90;;;5.70;;
466;SDS011;72290;48.808;9.222;2024-01-25T08:12:44;30.53;;;6.87;;
466;SDS011;72290;48.808;9.222;2024-01-25T08:15:12;35.90;;;7.07;;
466;SDS011;72290;48.808;9.222;2024-01-25T08:17:39;26.30;;;6.37;;
466;SDS011;72290;48.808;9.222;2024-01-25T08:20:05;25.43;;;7.10;;
466;SDS011;72290;48.808;9.222;2024-01-25T08:22:32;27.40;;;5.90;;
466;SDS011;72290;48.808;9.222;2024-01-25T08:24:58;20.60;;;6.30;;
466;SDS011;72290;48.808;9.222;2024-01-25T08:27:24;23.00;;;5.20;;
466;SDS011;72290;48.808;9.222;2024-01-25T08:29:50;21.60;;;5.50;;
466;SDS011;72290;48.808;9.222;2024-01-25T08:32:16;30.20;;;6.77;;
466;SDS011;72290;48.808;9.222;2024-01-25T08:34:42;27.50;;;5.83;;
466;SDS011;72290;48.808;9.222;2024-01-25T08:37:08;21.13;;;6.70;;
466;SDS011;72290;48.808;9.222;2024-01-25T08:39:34;42.33;;;7.50;;
466;SDS011;72290;48.808;9.222;2024-01-25T08:42:00;18.07;;;4.80;;
466;SDS011;72290;48.808;9.222;2024-01-25T08:44:28;24.43;;;6.70;;
466;SDS011;72290;48.808;9.222;2024-01-25T08:46:54;25.43;;;5.70;;
466;SDS011;72290;48.808;9.222;2024-01-25T08:49:20;14.40;;;4.40;;
466;SDS011;72290;48.808;9.222;2024-01-25T08:51:46;24.63;;;5.20;;
466;SDS011;72290;48.808;9.222;2024-01-25T08:54:12;21.80;;;5.73;;
466;SDS011;72290;48.808;9.222;2024-01-25T08:56:38;29.13;;;6.40;;
466;SDS011;72290;48.808;9.222;2024-01-25T08:59:04;19.23;;;6.40;;
466;SDS011;72290;48.808;9.222;2024-01-25T09:01:30;16.03;;;4.77;;
466;SDS011;72290;48.808;9.222;2024-01-25T09:03:56;22.27;;;5.60;;
466;SDS011;72290;48.808;9.222;2024-01-25T09:06:27;29.07;;;6.80;;
466;SDS011;72290;48.808;9.222;2024-01-25T09:08:53;35.50;;;7.73;;
466;SDS011;72290;48.808;9.222;2024-01-25T09:11:19;20.97;;;4.70;;
466;SDS011;72290;48.808;9.222;2024-01-25T09:13:45;29.07;;;5.73;;
466;SDS011;72290;48.808;9.222;2024-01-25T09:16:12;28.37;;;4.80;;
466;SDS011;72290;48.808;9.222;2024-01-25T09:18:38;28.70;;;5.10;;
466;SDS011;72290;48.808;9.222;2024-01-25T09:21:04;25.83;;;6.40;;
466;SDS011;72290;48.808;9.222;2024-01-25T09:23:30;16.57;;;4.50;;
466;SDS011;72290;48.808;9.222;2024-01-25T09:25:56;17.67;;;5.40;;
466;SDS011;72290;48.808;9.222;2024-01-25T09:28:22;24.27;;;4.90;;
466;SDS011;72290;48.808;9.222;2024-01-25T09:30:48;21.13;;;4.83;;
466;SDS011;72290;48.808;9.222;2024-01-25T09:33:14;26.63;;;6.10;;
466;SDS011;72290;48.808;9.222;2024-01-25T09:35:40;16.53;;;5.17;;
466;SDS011;72290;48.808;9.222;2024-01-25T09:38:06;29.03;;;5.57;;
466;SDS011;72290;48.808;9.222;2024-01-25T09:40:32;27.73;;;6.50;;
466;SDS011;72290;48.808;9.222;2024-01-25T09:42:58;19.97;;;5.50;;
466;SDS011;72290;48.808;9.222;2024-01-25T09:45:24;22.70;;;5.37;;
466;SDS011;72290;48.808;9.222;2024-01-25T09:47:50;24.80;;;5.20;;
466;SDS011;72290;48.808;9.222;2024-01-25T09:50:16;20.27;;;4.97;;
466;SDS011;72290;48.808;9.222;2024-01-25T09:52:43;16.67;;;5.73;;
466;SDS011;72290;48.808;9.222;2024-01-25T09:55:13;24.03;;;6.00;;
466;SDS011;72290;48.808;9.222;2024-01-25T09:57:45;32.20;;;6.47;;
466;SDS011;72290;48.808;9.222;2024-01-25T10:00:14;14.20;;;4.40;;
466;SDS011;72290;48.808;9.222;2024-01-25T10:02:40;22.07;;;5.17;;
466;SDS011;72290;48.808;9.222;2024-01-25T10:05:07;21.27;;;4.70;;
466;SDS011;72290;48.808;9.222;2024-01-25T10:07:39;15.40;;;5.00;;
466;SDS011;72290;48.808;9.222;2024-01-25T10:10:05;16.27;;;4.00;;
466;SDS011;72290;48.808;9.222;2024-01-25T10:12:32;21.10;;;5.40;;
466;SDS011;72290;48.808;9.222;2024-01-25T10:14:58;21.40;;;5.80;;
466;SDS011;72290;48.808;9.222;2024-01-25T10:17:24;24.93;;;5.87;;
466;SDS011;72290;48.808;9.222;2024-01-25T10:19:50;27.47;;;5.33;;
466;SDS011;72290;48.808;9.222;2024-01-25T10:22:16;35.93;;;5.60;;
466;SDS011;72290;48.808;9.222;2024-01-25T10:24:42;20.60;;;4.90;;
466;SDS011;72290;48.808;9.222;2024-01-25T10:27:08;15.73;;;4.03;;
466;SDS011;72290;48.808;9.222;2024-01-25T10:29:34;21.87;;;5.50;;
466;SDS011;72290;48.808;9.222;2024-01-25T10:32:01;20.60;;;4.50;;
466;SDS011;72290;48.808;9.222;2024-01-25T10:34:28;19.40;;;4.83;;
466;SDS011;72290;48.808;9.222;2024-01-25T10:36:54;22.37;;;5.13;;
466;SDS011;72290;48.808;9.222;2024-01-25T10:39:21;18.00;;;4.37;;
466;SDS011;72290;48.808;9.222;2024-01-25T10:41:47;22.53;;;5.33;;
466;SDS011;72290;48.808;9.222;2024-01-25T10:44:15;13.60;;;4.50;;
466;SDS011;72290;48.808;9.222;2024-01-25T10:46:43;19.93;;;4.80;;
466;SDS011;72290;48.808;9.222;2024-01-25T10:49:09;26.23;;;4.80;;
466;SDS011;72290;48.808;9.222;2024-01-25T10:51:35;25.33;;;4.73;;
466;SDS011;72290;48.808;9.222;2024-01-25T10:54:01;36.10;;;6.13;;
466;SDS011;72290;48.808;9.222;2024-01-25T10:56:31;27.73;;;5.70;;
466;SDS011;72290;48.808;9.222;2024-01-25T10:58:57;34.17;;;5.40;;
466;SDS011;72290;48.808;9.222;2024-01-25T11:01:23;28.80;;;5.70;;
466;SDS011;72290;48.808;9.222;2024-01-25T11:03:49;32.23;;;7.60;;
466;SDS011;72290;48.808;9.222;2024-01-25T11:06:15;24.87;;;5.57;;
466;SDS011;72290;48.808;9.222;2024-01-25T11:08:42;14.17;;;3.90;;
466;SDS011;72290;48.808;9.222;2024-01-25T11:11:10;18.73;;;4.70;;
466;SDS011;72290;48.808;9.222;2024-01-25T11:13:38;29.40;;;4.83;;
466;SDS011;72290;48.808;9.222;2024-01-25T11:16:27;25.03;;;5.40;;
466;SDS011;72290;48.808;9.222;2024-01-25T11:18:54;18.63;;;4.93;;
466;SDS011;72290;48.808;9.222;2024-01-25T11:21:29;16.73;;;4.30;;
466;SDS011;72290;48.808;9.222;2024-01-25T11:24:03;18.10;;;4.67;;
466;SDS011;72290;48.808;9.222;2024-01-25T11:26:33;19.83;;;4.60;;
466;SDS011;72290;48.808;9.222;2024-01-25T11:28:59;25.83;;;4.80;;
466;SDS011;72290;48.808;9.222;2024-01-25T11:31:26;18.07;;;4.40;;
466;SDS011;72290;48.808;9.222;2024-01-25T11:33:53;13.03;;;3.60;;
466;SDS011;72290;48.808;9.222;2024-01-25T11:36:22;31.33;;;4.97;;
466;SDS011;72290;48.808;9.222;2024-01-25T11:38:48;18.13;;;4.30;;
466;SDS011;72290;48.808;9.222;2024-01-25T11:41:14;15.60;;;4.17;;
466;SDS011;72290;48.808;9.222;2024-01-25T11:43:40;16.07;;;3.47;;
466;SDS011;72290;48.808;9.222;2024-01-25T11:46:06;12.70;;;3.77;;
466;SDS011;72290;48.808;9.222;2024-01-25T11:48:32;10.30;;;4.13;;
466;SDS011;72290;48.808;9.222;2024-01-25T11:50:59;13.63;;;3.40;;
466;SDS011;72290;48.808;9.222;2024-01-25T11:53:25;13.07;;;3.50;;
466;SDS011;72290;48.808;9.222;2024-01-25T11:55:52;24.57;;;4.50;;
466;SDS011;72290;48.808;9.222;2024-01-25T11:58:19;15.87;;;4.23;;
466;SDS011;72290;48.808;9.222;2024-01-25T12:00:45;15.40;;;4.13;;
466;SDS011;72290;48.808;9.222;2024-01-25T12:03:12;12.90;;;3.27;;
466;SDS011;72290;48.808;9.222;2024-01-25T12:05:38;15.57;;;3.57;;
466;SDS011;72290;48.808;9.222;2024-01-25T12:08:09;33.47;;;4.80;;
466;SDS011;72290;48.808;9.222;2024-01-25T12:10:35;17.53;;;3.90;;
466;SDS011;72290;48.808;9.222;2024-01-25T12:13:01;14.13;;;3.87;;
466;SDS011;72290;48.808;9.222;2024-01-25T12:15:28;22.43;;;4.57;;
466;SDS011;72290;48.808;9.222;2024-01-25T12:17:54;17.37;;;4.40;;
466;SDS011;72290;48.808;9.222;2024-01-25T12:20:20;14.97;;;3.80;;
466;SDS011;72290;48.808;9.222;2024-01-25T12:22:48;16.10;;;4.00;;
466;SDS011;72290;48.808;9.222;2024-01-25T12:25:14;19.17;;;3.70;;
466;SDS011;72290;48.808;9.222;2024-01-25T12:27:40;23.70;;;4.70;;
466;SDS011;72290;48.808;9.222;2024-01-25T12:30:06;30.53;;;4.13;;
466;SDS011;72290;48.808;9.222;2024-01-25T12:32:33;15.17;;;4.13;;
466;SDS011;72290;48.808;9.222;2024-01-25T12:35:00;15.67;;;4.13;;
466;SDS011;72290;48.808;9.222;2024-01-25T12:37:26;11.27;;;3.50;;
466;SDS011;72290;48.808;9.222;2024-01-25T12:39:53;10.63;;;3.60;;
466;SDS011;72290;48.808;9.222;2024-01-25T12:42:19;13.57;;;3.40;;
466;SDS011;72290;48.808;9.222;2024-01-25T12:44:45;25.83;;;4.47;;
466;SDS011;72290;48.808;9.222;2024-01-25T12:47:11;17.03;;;4.00;;
466;SDS011;72290;48.808;9.222;2024-01-25T12:49:41;15.83;;;3.80;;
466;SDS011;72290;48.808;9.222;2024-01-25T12:52:08;15.90;;;3.57;;
466;SDS011;72290;48.808;9.222;2024-01-25T12:54:34;25.50;;;4.07;;
466;SDS011;72290;48.808;9.222;2024-01-25T12:57:00;19.37;;;4.97;;
466;SDS011;72290;48.808;9.222;2024-01-25T12:59:26;18.67;;;4.03;;
466;SDS011;72290;48.808;9.222;2024-01-25T13:01:52;16.60;;;3.67;;
466;SDS011;72290;48.808;9.222;2024-01-25T13:04:18;17.50;;;3.73;;
466;SDS011;72290;48.808;9.222;2024-01-25T13:06:45;19.00;;;3.90;;
466;SDS011;72290;48.808;9.222;2024-01-25T13:09:11;14.57;;;3.40;;
466;SDS011;72290;48.808;9.222;2024-01-25T13:11:38;13.07;;;3.70;;
466;SDS011;72290;48.808;9.222;2024-01-25T13:14:03;14.97;;;2.97;;
466;SDS011;72290;48.808;9.222;2024-01-25T13:16:29;17.23;;;3.20;;
466;SDS011;72290;48.808;9.222;2024-01-25T13:18:55;27.90;;;6.40;;
466;SDS011;72290;48.808;9.222;2024-01-25T13:21:21;16.93;;;4.87;;
466;SDS011;72290;48.808;9.222;2024-01-25T13:23:47;17.80;;;2.63;;
466;SDS011;72290;48.808;9.222;2024-01-25T13:26:13;15.60;;;3.70;;
466;SDS011;72290;48.808;9.222;2024-01-25T13:28:39;15.43;;;3.90;;
466;SDS011;72290;48.808;9.222;2024-01-25T13:31:05;22.07;;;4.53;;
466;SDS011;72290;48.808;9.222;2024-01-25T13:33:31;11.63;;;3.10;;
466;SDS011;72290;48.808;9.222;2024-01-25T13:35:57;15.73;;;3.73;;
466;SDS011;72290;48.808;9.222;2024-01-25T13:38:23;15.73;;;4.53;;
466;SDS011;72290;48.808;9.222;2024-01-25T13:40:50;21.77;;;3.97;;
466;SDS011;72290;48.808;9.222;2024-01-25T13:43:16;19.27;;;3.67;;
466;SDS011;72290;48.808;9.222;2024-01-25T13:45:42;10.57;;;3.27;;
466;SDS011;72290;48.808;9.222;2024-01-25T13:48:08;22.70;;;4.37;;
466;SDS011;72290;48.808;9.222;2024-01-25T13:50:34;14.40;;;3.30;;
466;SDS011;72290;48.808;9.222;2024-01-25T13:53:00;27.43;;;4.13;;
466;SDS011;72290;48.808;9.222;2024-01-25T13:55:26;18.83;;;4.10;;
466;SDS011;72290;48.808;9.222;2024-01-25T13:57:52;20.17;;;4.40;;
466;SDS011;72290;48.808;9.222;2024-01-25T14:00:18;20.00;;;5.40;;
466;SDS011;72290;48.808;9.222;2024-01-25T14:02:44;14.73;;;3.57;;
466;SDS011;72290;48.808;9.222;2024-01-25T14:05:11;21.27;;;3.80;;
466;SDS011;72290;48.808;9.222;2024-01-25T14:07:37;21.97;;;3.47;;
466;SDS011;72290;48.808;9.222;2024-01-25T14:10:03;20.97;;;4.00;;
466;SDS011;72290;48.808;9.222;2024-01-25T14:12:29;19.47;;;3.60;;
466;SDS011;72290;48.808;9.222;2024-01-25T14:14:55;20.90;;;4.30;;
466;SDS011;72290;48.808;9.222;2024-01-25T14:17:20;11.97;;;3.80;;
466;SDS011;72290;48.808;9.222;2024-01-25T14:19:47;14.20;;;3.50;;
466;SDS011;72290;48.808;9.222;2024-01-25T14:22:13;14.30;;;3.47;;
466;SDS011;72290;48.808;9.222;2024-01-25T14:24:39;10.57;;;3.43;;
466;SDS011;72290;48.808;9.222;2024-01-25T14:27:04;17.77;;;2.83;;
466;SDS011;72290;48.808;9.222;2024-01-25T14:29:30;10.37;;;3.23;;
466;SDS011;72290;48.808;9.222;2024-01-25T14:31:58;16.50;;;4.07;;
466;SDS011;72290;48.808;9.222;2024-01-25T14:34:24;14.80;;;3.20;;
466;SDS011;72290;48.808;9.222;2024-01-25T14:36:50;18.43;;;3.40;;
466;SDS011;72290;48.808;9.222;2024-01-25T14:39:16;16.30;;;3.80;;
466;SDS011;72290;48.808;9.222;2024-01-25T14:41:43;8.90;;;3.13;;
466;SDS011;72290;48.808;9.222;2024-01-25T14:44:09;13.87;;;3.37;;
466;SDS011;72290;48.808;9.222;2024-01-25T14:46:36;15.47;;;3.77;;
466;SDS011;72290;48.808;9.222;2024-01-25T14:49:02;13.60;;;3.83;;
466;SDS011;72290;48.808;9.222;2024-01-25T14:51:28;13.20;;;3.60;;
466;SDS011;72290;48.808;9.222;2024-01-25T14:53:54;9.83;;;3.40;;
466;SDS011;72290;48.808;9.222;2024-01-25T14:56:20;17.40;;;4.10;;
466;SDS011;72290;48.808;9.222;2024-01-25T14:58:46;24.47;;;4.33;;
466;SDS011;72290;48.808;9.222;2024-01-25T15:01:15;15.13;;;2.90;;
466;SDS011;72290;48.808;9.222;2024-01-25T15:03:47;25.70;;;4.70;;
466;SDS011;72290;48.808;9.222;2024-01-25T15:06:13;15.00;;;3.80;;
466;SDS011;72290;48.808;9.222;2024-01-25T15:08:39;23.10;;;4.43;;
466;SDS011;72290;48.808;9.222;2024-01-25T15:11:06;18.77;;;3.87;;
466;SDS011;72290;48.808;9.222;2024-01-25T15:13:32;16.20;;;4.37;;
466;SDS011;72290;48.808;9.222;2024-01-25T15:15:58;10.80;;;3.20;;
466;SDS011;72290;48.808;9.222;2024-01-25T15:18:25;17.23;;;3.87;;
466;SDS011;72290;48.808;9.222;2024-01-25T15:20:51;18.63;;;3.97;;
466;SDS011;72290;48.808;9.222;2024-01-25T15:23:18;20.63;;;5.87;;
466;SDS011;72290;48.808;9.222;2024-01-25T15:25:43;15.33;;;3.73;;
466;SDS011;72290;48.808;9.222;2024-01-25T15:28:09;12.80;;;3.50;;
466;SDS011;72290;48.808;9.222;2024-01-25T15:30:35;17.50;;;3.80;;
466;SDS011;72290;48.808;9.222;2024-01-25T15:33:01;16.13;;;3.90;;
466;SDS011;72290;48.808;9.222;2024-01-25T15:35:29;13.50;;;3.80;;
466;SDS011;72290;48.808;9.222;2024-01-25T15:37:55;12.93;;;4.57;;
466;SDS011;72290;48.808;9.222;2024-01-25T15:40:21;20.03;;;4.00;;
466;SDS011;72290;48.808;9.222;2024-01-25T15:42:47;14.97;;;3.87;;
466;SDS011;72290;48.808;9.222;2024-01-25T15:45:19;20.33;;;4.20;;
466;SDS011;72290;48.808;9.222;2024-01-25T15:47:45;13.47;;;2.97;;
466;SDS011;72290;48.808;9.222;2024-01-25T15:50:11;11.23;;;3.63;;
466;SDS011;72290;48.808;9.222;2024-01-25T15:52:37;20.00;;;3.87;;
466;SDS011;72290;48.808;9.222;2024-01-25T15:55:04;10.83;;;4.10;;
466;SDS011;72290;48.808;9.222;2024-01-25T15:57:30;16.80;;;4.90;;
466;SDS011;72290;48.808;9.222;2024-01-25T15:59:56;16.93;;;3.83;;
466;SDS011;72290;48.808;9.222;2024-01-25T16:02:22;13.33;;;3.60;;
466;SDS011;72290;48.808;9.222;2024-01-25T16:04:48;15.17;;;4.57;;
466;SDS011;72290;48.808;9.222;2024-01-25T16:07:14;10.37;;;3.10;;
466;SDS011;72290;48.808;9.222;2024-01-25T16:09:40;9.20;;;3.53;;
466;SDS011;72290;48.808;9.222;2024-01-25T16:12:07;11.17;;;3.53;;
466;SDS011;72290;48.808;9.222;2024-01-25T16:14:33;16.20;;;4.50;;
466;SDS011;72290;48.808;9.222;2024-01-25T16:16:59;15.27;;;5.07;;
466;SDS011;72290;48.808;9.222;2024-01-25T16:19:25;11.17;;;4.17;;
466;SDS011;72290;48.808;9.222;2024-01-25T16:21:51;15.00;;;3.60;;
466;SDS011;72290;48.808;9.222;2024-01-25T16:24:17;18.17;;;3.97;;
466;SDS011;72290;48.808;9.222;2024-01-25T16:26:44;14.00;;;3.60;;
466;SDS011;72290;48.808;9.222;2024-01-25T16:29:10;11.00;;;4.07;;
466;SDS011;72290;48.808;9.222;2024-01-25T16:31:36;16.47;;;3.80;;
466;SDS011;72290;48.808;9.222;2024-01-25T16:34:02;23.47;;;4.03;;
466;SDS011;72290;48.808;9.222;2024-01-25T16:36:28;21.47;;;4.60;;
466;SDS011;72290;48.808;9.222;2024-01-25T16:38:54;12.50;;;3.70;;
466;SDS011;72290;48.808;9.222;2024-01-25T16:41:20;14.27;;;4.23;;
466;SDS011;72290;48.808;9.222;2024-01-25T16:43:45;23.10;;;4.50;;
466;SDS011;72290;48.808;9.222;2024-01-25T16:46:11;18.07;;;5.50;;
466;SDS011;72290;48.808;9.222;2024-01-25T16:48:37;13.87;;;3.87;;
466;SDS011;72290;48.808;9.222;2024-01-25T16:51:03;16.87;;;3.90;;
466;SDS011;72290;48.808;9.222;2024-01-25T16:53:29;16.23;;;3.70;;
466;SDS011;72290;48.808;9.222;2024-01-25T16:55:55;16.60;;;3.57;;
466;SDS011;72290;48.808;9.222;2024-01-25T16:58:23;13.93;;;4.37;;
466;SDS011;72290;48.808;9.222;2024-01-25T17:00:49;12.80;;;3.23;;
466;SDS011;72290;48.808;9.222;2024-01-25T17:03:16;24.63;;;5.33;;
466;SDS011;72290;48.808;9.222;2024-01-25T17:05:42;30.03;;;4.60;;
466;SDS011;72290;48.808;9.222;2024-01-25T17:08:08;26.87;;;5.07;;
466;SDS011;72290;48.808;9.222;2024-01-25T17:10:34;14.20;;;3.30;;
466;SDS011;72290;48.808;9.222;2024-01-25T17:13:00;12.83;;;3.40;;
466;SDS011;72290;48.808;9.222;2024-01-25T17:15:26;9.43;;;4.40;;
466;SDS011;72290;48.808;9.222;2024-01-25T17:17:52;10.73;;;3.27;;
466;SDS011;72290;48.808;9.222;2024-01-25T17:20:18;15.43;;;3.90;;
466;SDS011;72290;48.808;9.222;2024-01-25T17:22:44;10.80;;;5.00;;
466;SDS011;72290;48.808;9.222;2024-01-25T17:25:10;5.43;;;3.20;;
466;SDS011;72290;48.808;9.222;2024-01-25T17:27:36;13.87;;;4.63;;
466;SDS011;72290;48.808;9.222;2024-01-25T17:30:02;8.10;;;3.50;;
466;SDS011;72290;48.808;9.222;2024-01-25T17:32:28;12.93;;;3.60;;
466;SDS011;72290;48.808;9.222;2024-01-25T17:34:54;7.53;;;3.33;;
466;SDS011;72290;48.808;9.222;2024-01-25T17:37:21;7.83;;;3.33;;
466;SDS011;72290;48.808;9.222;2024-01-25T17:39:46;9.40;;;3.00;;
466;SDS011;72290;48.808;9.222;2024-01-25T17:42:12;9.17;;;3.00;;
466;SDS011;72290;48.808;9.222;2024-01-25T17:44:38;10.00;;;3.63;;
466;SDS011;72290;48.808;9.222;2024-01-25T17:47:04;9.47;;;3.60;;
466;SDS011;72290;48.808;9.222;2024-01-25T17:49:30;11.10;;;3.60;;
466;SDS011;72290;48.808;9.222;2024-01-25T17:51:56;19.53;;;3.67;;
466;SDS011;72290;48.808;9.222;2024-01-25T17:54:22;17.83;;;4.50;;
466;SDS011;72290;48.808;9.222;2024-01-25T17:56:49;20.63;;;4.43;;
466;SDS011;72290;48.808;9.222;2024-01-25T17:59:15;8.67;;;3.10;;
466;SDS011;72290;48.808;9.222;2024-01-25T18:01:41;12.70;;;3.70;;
466;SDS011;72290;48.808;9.222;2024-01-25T18:04:07;9.43;;;3.03;;
466;SDS011;72290;48.808;9.222;2024-01-25T18:06:33;10.83;;;3.27;;
466;SDS011;72290;48.808;9.222;2024-01-25T18:08:59;12.67;;;4.10;;
466;SDS011;72290;48.808;9.222;2024-01-25T18:11:25;25.80;;;4.50;;
466;SDS011;72290;48.808;9.222;2024-01-25T18:13:51;7.30;;;3.90;;
466;SDS011;72290;48.808;9.222;2024-01-25T18:16:17;14.50;;;3.43;;
466;SDS011;72290;48.808;9.222;2024-01-25T18:18:43;16.77;;;3.67;;
466;SDS011;72290;48.808;9.222;2024-01-25T18:21:09;12.37;;;3.60;;
466;SDS011;72290;48.808;9.222;2024-01-25T18:23:35;9.17;;;3.20;;
466;SDS011;72290;48.808;9.222;2024-01-25T18:26:01;15.23;;;3.80;;
466;SDS011;72290;48.808;9.222;2024-01-25T18:28:27;26.60;;;5.37;;
466;SDS011;72290;48.808;9.222;2024-01-25T18:30:53;21.73;;;5.40;;
466;SDS011;72290;48.808;9.222;2024-01-25T18:33:19;9.97;;;4.63;;
466;SDS011;72290;48.808;9.222;2024-01-25T18:35:46;14.13;;;5.20;;
466;SDS011;72290;48.808;9.222;2024-01-25T18:38:12;19.50;;;5.27;;
466;SDS011;72290;48.808;9.222;2024-01-25T18:40:38;19.00;;;6.60;;
466;SDS011;72290;48.808;9.222;2024-01-25T18:43:04;23.40;;;6.50;;
466;SDS011;72290;48.808;9.222;2024-01-25T18:45:30;14.87;;;6.90;;
466;SDS011;72290;48.808;9.222;2024-01-25T18:47:56;18.97;;;7.43;;
466;SDS011;72290;48.808;9.222;2024-01-25T18:50:22;15.43;;;5.90;;
466;SDS011;72290;48.808;9.222;2024-01-25T18:52:48;10.20;;;6.00;;
466;SDS011;72290;48.808;9.222;2024-01-25T18:55:15;11.13;;;5.43;;
466;SDS011;72290;48.808;9.222;2024-01-25T18:57:41;16.73;;;5.67;;
466;SDS011;72290;48.808;9.222;2024-01-25T19:00:07;21.63;;;5.83;;
466;SDS011;72290;48.808;9.222;2024-01-25T19:02:36;15.93;;;5.80;;
466;SDS011;72290;48.808;9.222;2024-01-25T19:05:02;14.60;;;5.33;;
466;SDS011;72290;48.808;9.222;2024-01-25T19:07:30;10.27;;;5.60;;
466;SDS011;72290;48.808;9.222;2024-01-25T19:09:56;16.00;;;5.60;;
466;SDS011;72290;48.808;9.222;2024-01-25T19:12:22;10.90;;;5.70;;
466;SDS011;72290;48.808;9.222;2024-01-25T19:14:48;15.63;;;5.80;;
466;SDS011;72290;48.808;9.222;2024-01-25T19:17:13;16.67;;;6.50;;
466;SDS011;72290;48.808;9.222;2024-01-25T19:19:39;17.00;;;5.17;;
466;SDS011;72290;48.808;9.222;2024-01-25T19:22:05;22.83;;;6.97;;
466;SDS011;72290;48.808;9.222;2024-01-25T19:24:32;18.83;;;5.70;;
466;SDS011;72290;48.808;9.222;2024-01-25T19:26:58;16.37;;;6.00;;
466;SDS011;72290;48.808;9.222;2024-01-25T19:29:24;12.63;;;5.50;;
466;SDS011;72290;48.808;9.222;2024-01-25T19:31:50;26.47;;;6.53;;
466;SDS011;72290;48.808;9.222;2024-01-25T19:34:16;18.43;;;6.63;;
466;SDS011;72290;48.808;9.222;2024-01-25T19:36:42;13.53;;;5.60;;
466;SDS011;72290;48.808;9.222;2024-01-25T19:39:08;13.90;;;5.97;;
466;SDS011;72290;48.808;9.222;2024-01-25T19:41:35;13.70;;;5.30;;
466;SDS011;72290;48.808;9.222;2024-01-25T19:44:01;17.17;;;6.20;;
466;SDS011;72290;48.808;9.222;2024-01-25T19:46:27;16.33;;;5.70;;
466;SDS011;72290;48.808;9.222;2024-01-25T19:48:53;18.30;;;5.90;;
466;SDS011;72290;48.808;9.222;2024-01-25T19:51:19;14.10;;;6.20;;
466;SDS011;72290;48.808;9.222;2024-01-25T19:53:45;19.87;;;6.10;;
466;SDS011;72290;48.808;9.222;2024-01-25T19:56:12;15.37;;;5.43;;
466;SDS011;72290;48.808;9.222;2024-01-25T19:58:39;11.53;;;5.53;;
466;SDS011;72290;48.808;9.222;2024-01-25T20:01:05;17.17;;;6.33;;
466;SDS011;72290;48.808;9.222;2024-01-25T20:03:32;20.80;;;6.53;;
466;SDS011;72290;48.808;9.222;2024-01-25T20:05:58;20.30;;;6.23;;
466;SDS011;72290;48.808;9.222;2024-01-25T20:08:24;17.13;;;5.30;;
466;SDS011;72290;48.808;9.222;2024-01-25T20:10:52;24.47;;;6.70;;
466;SDS011;72290;48.808;9.222;2024-01-25T20:13:18;14.00;;;5.83;;
466;SDS011;72290;48.808;9.222;2024-01-25T20:15:44;15.33;;;5.80;;
466;SDS011;72290;48.808;9.222;2024-01-25T20:18:11;18.30;;;5.80;;
466;SDS011;72290;48.808;9.222;2024-01-25T20:20:37;18.80;;;5.23;;
466;SDS011;72290;48.808;9.222;2024-01-25T20:23:03;10.57;;;5.80;;
466;SDS011;72290;48.808;9.222;2024-01-25T20:25:30;20.40;;;6.37;;
466;SDS011;72290;48.808;9.222;2024-01-25T20:27:55;17.93;;;6.30;;
466;SDS011;72290;48.808;9.222;2024-01-25T20:30:22;19.17;;;7.27;;
466;SDS011;72290;48.808;9.222;2024-01-25T20:32:48;21.80;;;7.07;;
466;SDS011;72290;48.808;9.222;2024-01-25T20:35:15;12.23;;;6.10;;
466;SDS011;72290;48.808;9.222;2024-01-25T20:37:40;16.80;;;5.40;;
466;SDS011;72290;48.808;9.222;2024-01-25T20:40:07;14.00;;;5.73;;
466;SDS011;72290;48.808;9.222;2024-01-25T20:42:33;16.90;;;7.13;;
466;SDS011;72290;48.808;9.222;2024-01-25T20:44:59;21.83;;;6.40;;
466;SDS011;72290;48.808;9.222;2024-01-25T20:47:25;18.63;;;8.13;;
466;SDS011;72290;48.808;9.222;2024-01-25T20:49:51;17.90;;;6.20;;
466;SDS011;72290;48.808;9.222;2024-01-25T20:52:16;21.60;;;6.40;;
466;SDS011;72290;48.808;9.222;2024-01-25T20:54:43;29.30;;;7.80;;
466;SDS011;72290;48.808;9.222;2024-01-25T20:57:09;13.87;;;6.33;;